Time;durP1;ratioP1;P1;durP2;ratioP2;P2;SDS_P1;SDS_P2;PMS_P1;PMS_P2;Temp;Humidity;BMP_temperature;BMP_pressure;BME280_temperature;BME280_humidity;BME280_pressure;Samples;Min_cycle;Max_cycle;Signal;HPM_P1;HPM_P2
2022/03/03 05:51:22;;;;;;;62.88;31.48;;;;;;;-2.42;56.16;100457.00;5024846;27;1324564;-70
2022/03/03 05:53:48;;;;;;;60.03;30.02;;;;;;;-2.32;55.97;100446.03;5045063;27;106340;-70
2022/03/03 05:56:16;;;;;;;70.78;33.17;;;;;;;-2.24;56.39;100444.72;5044453;27;110023;-71
2022/03/03 05:58:46;;;;;;;80.45;36.00;;;;;;;-2.13;56.94;100436.34;5043642;27;106037;-73
2022/03/03 06:01:13;;;;;;;66.20;30.77;;;;;;;-2.03;56.96;100441.06;5044043;27;106112;-73
2022/03/03 06:03:39;;;;;;;57.47;31.70;;;;;;;-1.94;56.84;100441.41;5045189;27;106086;-73
2022/03/03 06:06:15;;;;;;;66.78;33.70;;;;;;;-1.83;57.30;100439.94;5044046;27;106399;-73
2022/03/03 06:08:42;;;;;;;90.35;41.38;;;;;;;-1.77;57.21;100430.00;5025848;27;106660;-74
2022/03/03 06:11:14;;;;;;;85.97;42.80;;;;;;;-1.75;56.60;100430.78;5023828;28;106086;-77
2022/03/03 06:13:46;;;;;;;103.13;43.10;;;;;;;-1.71;57.12;100427.06;5024655;28;106100;-71
2022/03/03 06:16:19;;;;;;;72.85;39.65;;;;;;;-1.67;56.87;100432.13;5023994;28;106503;-74
2022/03/03 06:18:49;;;;;;;99.15;42.65;;;;;;;-1.63;56.55;100420.56;5023766;28;106077;-73
2022/03/03 06:21:17;;;;;;;113.22;44.22;;;;;;;-1.63;56.42;100423.19;5023783;28;106736;-74
2022/03/03 06:23:43;;;;;;;119.30;48.78;;;;;;;-1.60;56.82;100428.22;5024329;28;105958;-73
2022/03/03 06:26:12;;;;;;;180.85;59.85;;;;;;;-1.59;56.26;100422.91;5024022;28;105853;-73
2022/03/03 06:28:38;;;;;;;184.43;60.85;;;;;;;-1.56;57.24;100419.28;5023519;28;105849;-78
2022/03/03 06:31:04;;;;;;;205.00;67.93;;;;;;;-1.52;57.40;100418.19;5023568;28;105886;-75
2022/03/03 06:33:30;;;;;;;214.68;77.70;;;;;;;-1.48;56.49;100413.63;5024534;27;105867;-75
2022/03/03 06:35:55;;;;;;;228.82;85.30;;;;;;;-1.48;56.67;100426.69;5004848;28;106318;-79
2022/03/03 06:38:21;;;;;;;184.30;69.97;;;;;;;-1.50;56.63;100415.47;5024390;28;105979;-78
2022/03/03 06:40:46;;;;;;;144.95;55.28;;;;;;;-1.48;56.79;100424.09;5023991;28;106236;-79
2022/03/03 06:43:12;;;;;;;99.32;40.92;;;;;;;-1.46;56.98;100417.84;5024741;28;106076;-73
2022/03/03 06:45:37;;;;;;;106.70;44.35;;;;;;;-1.39;57.50;100419.16;5025145;28;105848;-78
2022/03/03 06:48:04;;;;;;;95.05;42.03;;;;;;;-1.29;57.25;100424.72;5022941;28;106238;-77
2022/03/03 06:50:33;;;;;;;83.30;40.83;;;;;;;-1.16;57.72;100426.63;5023736;28;105848;-73
2022/03/03 06:53:00;;;;;;;80.28;35.05;;;;;;;-1.04;57.36;100426.75;5024202;28;106276;-80
2022/03/03 06:55:26;;;;;;;80.95;36.40;;;;;;;-0.97;57.29;100434.22;5023356;28;106170;-78
2022/03/03 06:57:55;;;;;;;73.38;34.78;;;;;;;-0.90;56.88;100428.56;5022481;28;105819;-74
2022/03/03 07:00:25;;;;;;;75.25;36.28;;;;;;;-0.79;57.76;100427.94;5023467;28;106288;-79
2022/03/03 07:02:52;;;;;;;83.13;37.47;;;;;;;-0.70;57.13;100435.22;5010252;28;106916;-74
2022/03/03 07:05:18;;;;;;;74.65;35.47;;;;;;;-0.62;57.02;100428.69;5009296;28;106353;-78
2022/03/03 07:07:46;;;;;;;67.22;34.05;;;;;;;-0.52;56.37;100422.81;5009789;28;106299;-73
2022/03/03 07:10:13;;;;;;;74.72;35.83;;;;;;;-0.45;56.21;100423.28;5008804;28;106804;-75
2022/03/03 07:12:40;;;;;;;69.43;35.33;;;;;;;-0.39;56.76;100415.03;5010553;28;105830;-76
2022/03/03 07:15:06;;;;;;;74.35;35.08;;;;;;;-0.35;56.09;100419.16;5009341;28;106270;-73
2022/03/03 07:17:37;;;;;;;73.25;35.00;;;;;;;-0.22;56.84;100424.47;5010402;28;105993;-73
2022/03/03 07:20:05;;;;;;;77.28;35.42;;;;;;;-0.08;56.38;100436.72;5009673;28;106026;-77
2022/03/03 07:22:38;;;;;;;75.35;34.40;;;;;;;0.04;56.36;100419.41;5010478;28;106037;-74
2022/03/03 07:25:10;;;;;;;77.63;33.83;;;;;;;0.13;56.10;100429.28;4991665;28;106143;-73
2022/03/03 07:27:41;;;;;;;73.15;32.17;;;;;;;0.25;56.36;100430.28;5009103;28;106516;-75
2022/03/03 07:30:09;;;;;;;63.17;33.65;;;;;;;0.38;56.49;100435.56;5009239;28;105910;-73
2022/03/03 07:32:37;;;;;;;64.78;31.17;;;;;;;0.49;56.17;100433.13;5009846;28;105871;-74
2022/03/03 07:35:12;;;;;;;55.72;29.13;;;;;;;0.56;56.29;100430.94;5009859;28;106270;-73
2022/03/03 07:37:47;;;;;;;68.10;30.92;;;;;;;0.63;55.95;100429.59;5009503;28;106274;-77
2022/03/03 07:40:12;;;;;;;66.55;29.88;;;;;;;0.71;55.51;100434.34;5009659;28;106192;-74
2022/03/03 07:42:39;;;;;;;55.55;28.38;;;;;;;0.78;55.28;100440.84;5011043;28;105761;-78
2022/03/03 07:45:07;;;;;;;63.42;32.13;;;;;;;0.87;55.09;100439.41;5008995;28;106219;-73
2022/03/03 07:47:33;;;;;;;60.05;30.40;;;;;;;0.98;55.13;100436.88;5008404;28;107163;-72
2022/03/03 07:49:59;;;;;;;58.92;28.85;;;;;;;1.06;54.94;100430.31;5007407;28;105978;-73
2022/03/03 07:52:25;;;;;;;68.82;28.13;;;;;;;1.18;54.75;100432.94;5009538;28;105906;-75
2022/03/03 07:54:51;;;;;;;61.53;29.08;;;;;;;1.31;54.85;100432.97;5009232;28;106303;-76
2022/03/03 07:57:20;;;;;;;62.47;29.08;;;;;;;1.45;54.64;100428.53;5008696;28;105890;-75
2022/03/03 07:59:58;;;;;;;63.33;28.35;;;;;;;1.58;54.53;100436.41;5009293;28;106294;-73
2022/03/03 08:02:24;;;;;;;69.13;31.70;;;;;;;1.75;54.46;100443.09;4991547;28;105909;-77
2022/03/03 08:04:51;;;;;;;58.35;27.65;;;;;;;1.86;53.99;100428.28;5009041;28;106277;-74
2022/03/03 08:07:18;;;;;;;66.05;30.58;;;;;;;1.94;53.62;100430.38;5008551;28;106592;-76
2022/03/03 08:09:47;;;;;;;54.25;28.10;;;;;;;2.06;53.65;100433.91;5008593;28;106207;-77
2022/03/03 08:12:14;;;;;;;49.60;26.95;;;;;;;2.18;53.57;100426.94;5009238;28;106013;-76
2022/03/03 08:14:40;;;;;;;53.33;28.27;;;;;;;2.32;53.39;100429.44;5007786;28;105906;-80
2022/03/03 08:17:07;;;;;;;57.17;27.58;;;;;;;2.46;53.43;100427.56;5015443;28;106065;-73
2022/03/03 08:19:33;;;;;;;60.80;29.05;;;;;;;2.63;53.12;100421.06;5025672;28;106511;-73
2022/03/03 08:21:59;;;;;;;60.25;29.88;;;;;;;2.83;52.90;100428.34;5029324;28;105997;-72
2022/03/03 08:24:26;;;;;;;54.40;28.27;;;;;;;3.02;52.83;100427.78;5028982;28;106189;-72
2022/03/03 08:26:54;;;;;;;62.90;29.23;;;;;;;3.26;52.34;100421.59;5028538;28;106064;-74
2022/03/03 08:29:19;;;;;;;63.75;29.33;;;;;;;3.50;52.00;100425.94;5028777;28;106582;-76
2022/03/03 08:31:52;;;;;;;54.78;26.88;;;;;;;3.80;51.91;100437.69;5029230;28;106496;-73
2022/03/03 08:34:42;;;;;;;58.53;28.50;;;;;;;4.15;51.60;100436.69;5028474;28;106050;-72
2022/03/03 08:37:13;;;;;;;52.00;26.15;;;;;;;4.57;51.21;100421.00;5016206;28;106773;-74
2022/03/03 08:39:40;;;;;;;56.92;27.13;;;;;;;5.06;50.56;100427.50;5010919;28;106564;-73
2022/03/03 08:42:08;;;;;;;61.80;27.98;;;;;;;5.42;49.88;100432.44;5028405;28;106559;-74
2022/03/03 08:44:36;;;;;;;52.35;26.05;;;;;;;5.81;49.27;100426.47;5027641;28;105930;-76
2022/03/03 08:47:05;;;;;;;55.80;28.20;;;;;;;6.38;48.88;100417.06;5027792;28;105937;-74
2022/03/03 08:49:39;;;;;;;51.42;26.27;;;;;;;6.79;47.71;100419.56;5027559;28;106076;-73
2022/03/03 08:52:06;;;;;;;57.78;27.00;;;;;;;7.66;46.53;100416.91;5029015;28;106106;-79
2022/03/03 08:54:32;;;;;;;53.00;26.15;;;;;;;10.19;46.96;100412.13;5028387;28;106257;-78
2022/03/03 08:56:57;;;;;;;55.47;26.80;;;;;;;13.75;43.49;100405.06;5028261;28;105909;-76
2022/03/03 08:59:23;;;;;;;53.45;26.95;;;;;;;16.92;39.64;100401.50;5029139;28;106029;-78
2022/03/03 09:01:49;;;;;;;47.25;25.48;;;;;;;19.85;35.26;100399.19;5029210;28;105919;-79
2022/03/03 09:04:14;;;;;;;52.47;28.08;;;;;;;22.23;31.06;100401.06;5028364;28;106140;-77
2022/03/03 09:06:40;;;;;;;52.83;25.70;;;;;;;23.59;27.66;100392.94;5028040;28;106226;-78
2022/03/03 09:09:05;;;;;;;57.20;27.58;;;;;;;24.95;24.14;100400.38;5027401;28;106580;-79
2022/03/03 09:11:31;;;;;;;46.17;25.42;;;;;;;25.92;22.69;100399.28;5028629;28;106948;-73
2022/03/03 09:13:56;;;;;;;45.95;26.00;;;;;;;26.66;20.91;100393.72;5027935;28;106326;-76
2022/03/03 09:16:21;;;;;;;49.50;27.48;;;;;;;27.14;18.79;100393.44;5027845;28;106694;-84
2022/03/03 09:18:47;;;;;;;49.00;26.58;;;;;;;28.07;18.34;100390.41;5028097;28;105937;-82
2022/03/03 09:21:13;;;;;;;44.47;26.50;;;;;;;28.90;17.29;100396.94;5028897;28;105993;-70
2022/03/03 09:23:39;;;;;;;42.97;26.33;;;;;;;29.62;16.51;100387.97;5027732;27;106196;-78
2022/03/03 09:26:04;;;;;;;45.58;26.45;;;;;;;30.28;15.65;100384.59;5027394;28;106502;-80
2022/03/03 09:28:30;;;;;;;43.50;25.67;;;;;;;30.95;15.50;100383.53;5029470;28;106042;-73
2022/03/03 09:30:56;;;;;;;42.97;26.33;;;;;;;31.89;14.05;100384.19;5028838;28;106239;-72
2022/03/03 09:33:22;;;;;;;41.33;26.73;;;;;;;32.32;14.06;100381.03;5027951;28;106136;-75
2022/03/03 09:35:47;;;;;;;44.65;28.15;;;;;;;32.61;13.75;100374.25;5027545;28;105752;-74
2022/03/03 09:38:13;;;;;;;46.65;29.17;;;;;;;33.21;12.39;100370.22;5027233;28;117537;-75
2022/03/03 09:40:38;;;;;;;46.30;28.73;;;;;;;32.99;11.91;100368.34;5028784;28;106196;-73
2022/03/03 09:43:07;;;;;;;42.28;28.50;;;;;;;33.12;12.40;100374.91;5028625;28;106208;-70
2022/03/03 09:45:35;;;;;;;42.07;26.93;;;;;;;33.44;11.59;100377.66;5027445;28;106041;-69
2022/03/03 09:48:09;;;;;;;38.85;27.23;;;;;;;34.20;11.27;100363.47;5027107;28;106054;-70
2022/03/03 09:50:37;;;;;;;42.03;28.67;;;;;;;34.92;11.19;100363.84;5027683;28;106142;-72
2022/03/03 09:53:11;;;;;;;37.53;26.50;;;;;;;35.96;10.14;100366.41;5027424;28;106200;-70
2022/03/03 09:55:38;;;;;;;43.35;27.88;;;;;;;36.52;9.71;100363.31;5027004;28;106484;-71
2022/03/03 09:58:03;;;;;;;40.88;26.50;;;;;;;36.35;9.29;100374.63;5027081;28;105962;-71
2022/03/03 10:00:36;;;;;;;35.55;26.95;;;;;;;36.52;9.12;100373.63;5028303;28;105914;-72
2022/03/03 10:03:10;;;;;;;33.83;24.73;;;;;;;36.97;8.77;100372.00;5027350;28;106452;-71
2022/03/03 10:05:45;;;;;;;35.13;24.58;;;;;;;37.55;8.54;100374.69;5027657;28;106588;-70
2022/03/03 10:08:12;;;;;;;33.15;24.38;;;;;;;38.04;8.07;100371.00;5026439;28;105941;-72
2022/03/03 10:10:43;;;;;;;28.75;23.10;;;;;;;38.56;8.08;100378.47;5027983;28;105933;-73
2022/03/03 10:13:09;;;;;;;34.35;23.85;;;;;;;38.59;7.33;100366.63;5008599;28;106162;-72
2022/03/03 10:15:35;;;;;;;30.45;23.30;;;;;;;38.98;7.42;100370.81;5027261;28;106021;-73
2022/03/03 10:18:01;;;;;;;33.55;22.98;;;;;;;38.84;7.36;100362.91;5025745;28;106332;-73
2022/03/03 10:20:27;;;;;;;29.10;22.70;;;;;;;38.17;7.13;100371.78;5027596;28;106026;-69
2022/03/03 10:22:58;;;;;;;27.10;21.67;;;;;;;37.37;7.45;100374.97;5027017;28;106706;-71
2022/03/03 10:25:35;;;;;;;30.63;22.50;;;;;;;37.57;6.59;100369.59;5027279;28;106385;-71
2022/03/03 10:28:09;;;;;;;28.73;21.98;;;;;;;37.63;6.69;100365.41;5025827;28;106112;-71
2022/03/03 10:30:57;;;;;;;25.95;20.63;;;;;;;38.52;6.46;100365.63;5027673;28;105974;-71
2022/03/03 10:33:25;;;;;;;30.70;21.33;;;;;;;39.03;6.58;100357.41;5027271;28;106076;-74
2022/03/03 10:36:22;;;;;;;28.05;22.33;;;;;;;39.64;6.21;100362.84;5026686;27;106176;-71
2022/03/03 10:38:47;;;;;;;31.75;21.48;;;;;;;40.52;5.93;100361.47;5015259;28;106081;-72
2022/03/03 10:41:29;;;;;;;29.17;21.02;;;;;;;40.80;5.66;100357.59;5010600;28;105982;-70
2022/03/03 10:43:55;;;;;;;24.95;19.70;;;;;;;40.26;5.63;100349.81;5010161;28;105958;-74
2022/03/03 10:46:20;;;;;;;23.10;19.10;;;;;;;40.29;5.54;100351.06;5009640;28;106602;-73
2022/03/03 10:48:45;;;;;;;26.13;20.85;;;;;;;41.09;5.36;100344.91;5009369;28;113186;-72
2022/03/03 10:51:14;;;;;;;27.38;20.80;;;;;;;41.48;5.05;100352.31;5009715;28;106034;-75
2022/03/03 10:53:41;;;;;;;;;;;;;;;41.60;5.11;100349.28;5010261;28;106569;-77
2022/03/03 10:56:12;;;;;;;24.42;19.98;;;;;;;42.01;5.35;100343.84;4991877;28;108666;-74
2022/03/03 10:58:46;;;;;;;26.60;19.83;;;;;;;42.07;4.78;100347.88;5010017;28;106092;-81
2022/03/03 11:01:12;;;;;;;36.10;19.20;;;;;;;42.34;4.84;100342.22;5009738;28;106042;-73
2022/03/03 11:03:39;;;;;;;25.55;19.42;;;;;;;42.87;4.77;100331.91;5009462;28;106190;-68
2022/03/03 11:06:04;;;;;;;22.38;18.38;;;;;;;43.25;4.42;100333.41;5008942;28;106882;-68
2022/03/03 11:08:30;;;;;;;19.85;17.20;;;;;;;43.32;4.55;100321.44;5009359;28;106028;-71
2022/03/03 11:10:56;;;;;;;21.85;17.83;;;;;;;43.25;4.39;100318.59;5012990;28;106187;-70
2022/03/03 11:13:22;;;;;;;21.45;17.77;;;;;;;43.61;4.33;100330.03;5009776;28;106258;-69
2022/03/03 11:15:48;;;;;;;25.48;17.83;;;;;;;43.96;4.29;100322.97;5009264;28;105939;-69
2022/03/03 11:18:18;;;;;;;20.35;18.10;;;;;;;44.09;4.15;100315.78;5009710;28;106031;-71
2022/03/03 11:20:45;;;;;;;24.73;19.23;;;;;;;43.58;4.27;100322.38;5009339;28;106111;-71
2022/03/03 11:23:11;;;;;;;26.17;20.30;;;;;;;43.27;3.89;100316.22;5009989;28;105953;-72
2022/03/03 11:25:37;;;;;;;22.55;19.85;;;;;;;43.35;4.39;100323.47;5009718;28;106823;-73
2022/03/03 11:28:07;;;;;;;27.25;19.60;;;;;;;43.04;4.21;100322.03;5008378;28;106637;-72
2022/03/03 11:30:34;;;;;;;24.35;19.65;;;;;;;43.05;4.47;100318.88;5010001;28;106047;-72
2022/03/03 11:33:22;;;;;;;24.63;20.48;;;;;;;43.28;3.89;100317.81;5009104;28;106250;-75
2022/03/03 11:36:03;;;;;;;22.77;19.43;;;;;;;43.69;4.03;100314.84;5009099;28;105872;-77
2022/03/03 11:38:50;;;;;;;32.10;21.85;;;;;;;43.73;3.73;100301.63;5009183;28;106012;-77
2022/03/03 11:41:16;;;;;;;41.53;21.52;;;;;;;43.74;4.04;100299.63;5010180;28;105867;-72
2022/03/03 11:44:04;;;;;;;34.97;27.02;;;;;;;43.89;4.02;100303.31;5016301;28;106316;-73
2022/03/03 11:46:46;;;;;;;27.85;21.45;;;;;;;43.47;4.11;100301.91;5018686;28;105983;-71
2022/03/03 11:49:15;;;;;;;29.05;20.63;;;;;;;43.39;3.91;100301.03;5008185;28;105968;-73
2022/03/03 11:51:42;;;;;;;24.95;20.23;;;;;;;43.45;3.75;100305.09;4989858;28;106091;-72
2022/03/03 11:54:09;;;;;;;22.90;20.45;;;;;;;43.51;4.00;100308.34;4994159;28;106227;-70
2022/03/03 11:56:35;;;;;;;27.42;20.50;;;;;;;43.43;3.93;100308.28;4999771;28;107071;-70
2022/03/03 11:59:11;;;;;;;23.15;18.65;;;;;;;43.53;3.58;100297.53;5008414;28;106804;-71
2022/03/03 12:01:55;;;;;;;23.08;20.00;;;;;;;43.18;3.88;100290.53;5009434;28;106083;-71
2022/03/03 12:04:25;;;;;;;23.33;18.95;;;;;;;43.00;3.94;100288.38;5008769;28;106202;-70
2022/03/03 12:06:51;;;;;;;24.85;20.00;;;;;;;42.57;4.27;100285.25;5008536;28;106230;-71
2022/03/03 12:09:26;;;;;;;23.75;20.05;;;;;;;42.64;3.83;100282.53;5008822;28;106231;-73
2022/03/03 12:12:16;;;;;;;21.73;19.27;;;;;;;42.47;3.81;100280.34;5009210;28;106013;-72
2022/03/03 12:15:10;;;;;;;22.45;17.90;;;;;;;42.48;3.84;100279.16;5008004;28;106313;-71
2022/03/03 12:17:42;;;;;;;19.45;16.65;;;;;;;42.95;4.20;100277.53;4990358;28;107198;-72
2022/03/03 12:20:35;;;;;;;22.80;16.65;;;;;;;43.36;3.76;100269.00;5008026;28;106076;-69
2022/03/03 12:23:09;;;;;;;19.60;16.35;;;;;;;43.98;3.49;100270.06;5009325;28;106018;-70
2022/03/03 12:25:50;;;;;;;16.77;14.30;;;;;;;43.57;3.50;100264.72;5008710;28;106116;-71
2022/03/03 12:28:23;;;;;;;17.98;14.85;;;;;;;44.03;3.53;100268.88;5007978;28;105925;-71
2022/03/03 12:30:50;;;;;;;19.13;15.43;;;;;;;44.60;3.35;100254.88;5007794;28;106433;-71
2022/03/03 12:33:53;;;;;;;17.58;14.25;;;;;;;45.05;3.14;100260.03;5007911;28;106126;-72
2022/03/03 12:36:18;;;;;;;20.42;15.30;;;;;;;45.61;3.14;100263.09;5007670;28;105916;-71
2022/03/03 12:38:44;;;;;;;21.00;15.00;;;;;;;45.86;2.77;100261.41;5007627;28;121889;-71
2022/03/03 12:41:10;;;;;;;16.67;14.82;;;;;;;45.77;3.07;100273.88;5007693;28;106046;-71
2022/03/03 12:43:38;;;;;;;19.15;14.77;;;;;;;44.84;3.06;100268.53;5009098;28;106011;-71
2022/03/03 12:46:04;;;;;;;26.50;15.77;;;;;;;44.44;3.37;100262.91;5007689;28;106225;-74
2022/03/03 12:48:31;;;;;;;22.10;14.23;;;;;;;44.45;3.33;100253.28;4998852;28;106017;-71
2022/03/03 12:51:04;;;;;;;20.38;14.38;;;;;;;44.11;3.37;100254.47;5007517;27;106401;-74
2022/03/03 12:53:43;;;;;;;18.73;13.45;;;;;;;44.07;3.11;100262.06;5028067;28;105893;-70
2022/03/03 12:56:10;;;;;;;20.00;15.93;;;;;;;44.24;3.29;100257.66;5015551;28;106056;-72
2022/03/03 12:58:35;;;;;;;37.95;16.98;;;;;;;44.24;3.51;100254.06;4988970;28;106077;-75
2022/03/03 13:01:02;;;;;;;16.05;14.23;;;;;;;43.99;3.28;100249.22;5007180;28;105939;-69
2022/03/03 13:03:37;;;;;;;23.25;15.50;;;;;;;43.97;3.29;100246.00;5008233;28;105901;-71
2022/03/03 13:06:05;;;;;;;26.55;16.63;;;;;;;43.36;3.66;100246.59;5006915;28;106244;-70
2022/03/03 13:08:34;;;;;;;19.08;15.70;;;;;;;43.03;3.54;100244.75;5007512;28;106207;-70
2022/03/03 13:11:14;;;;;;;19.10;15.05;;;;;;;42.81;3.90;100238.22;5006433;28;106112;-71
2022/03/03 13:13:48;;;;;;;26.05;14.52;;;;;;;43.11;3.67;100230.41;5007992;28;106390;-71
2022/03/03 13:16:18;;;;;;;23.48;14.77;;;;;;;42.92;3.90;100227.88;5007721;28;105810;-73
2022/03/03 13:18:44;;;;;;;24.30;14.45;;;;;;;42.91;3.95;100234.69;5006846;28;106366;-73
2022/03/03 13:21:12;;;;;;;26.73;15.07;;;;;;;42.52;4.01;100235.19;5007055;28;106069;-70
2022/03/03 13:23:49;;;;;;;28.42;16.48;;;;;;;41.84;4.13;100238.13;5007728;28;106038;-70
2022/03/03 13:26:16;;;;;;;27.10;15.43;;;;;;;41.89;4.23;100235.00;5007369;28;106297;-71
2022/03/03 13:28:45;;;;;;;21.83;14.63;;;;;;;42.15;4.03;100236.06;5007412;28;106174;-70
2022/03/03 13:31:16;;;;;;;;;;;;;;;42.27;3.89;100233.78;5007395;28;106043;-70
2022/03/03 13:33:46;;;;;;;42.75;13.25;;;;;;;42.29;3.74;100230.59;5007330;28;105965;-71
2022/03/03 13:36:27;;;;;;;22.38;12.38;;;;;;;42.18;3.83;100218.50;5007588;28;106091;-70
2022/03/03 13:38:56;;;;;;;29.02;12.93;;;;;;;42.11;4.30;100228.41;5007049;28;106592;-72
2022/03/03 13:41:27;;;;;;;19.02;13.35;;;;;;;42.35;4.00;100219.84;5006799;28;105983;-70
2022/03/03 13:44:16;;;;;;;19.52;14.57;;;;;;;41.58;4.08;100231.44;5007255;28;106021;-69
2022/03/03 13:46:58;;;;;;;18.38;15.57;;;;;;;40.44;4.49;100221.78;5007651;28;105945;-70
2022/03/03 13:49:25;;;;;;;19.05;14.40;;;;;;;39.79;4.49;100219.00;5006520;28;106722;-70
2022/03/03 13:52:27;;;;;;;19.65;14.38;;;;;;;39.77;4.91;100220.16;5006760;28;106188;-71
2022/03/03 13:55:17;;;;;;;20.15;15.43;;;;;;;39.55;4.67;100226.47;5008192;28;106304;-71
2022/03/03 13:57:53;;;;;;;21.75;16.05;;;;;;;39.42;4.97;100217.44;5007691;28;105987;-73
2022/03/03 14:00:30;;;;;;;20.90;16.50;;;;;;;39.35;4.86;100218.09;5006718;28;106782;-70
2022/03/03 14:03:07;;;;;;;21.63;16.40;;;;;;;39.14;5.28;100220.38;5006865;28;106741;-71
2022/03/03 14:05:53;;;;;;;19.88;16.23;;;;;;;38.40;5.54;100219.84;5006798;28;105975;-70
2022/03/03 14:08:28;;;;;;;17.60;15.13;;;;;;;37.29;5.92;100225.06;5006871;28;106206;-71
2022/03/03 14:10:55;;;;;;;21.70;15.25;;;;;;;37.07;6.14;100232.72;5006922;28;106064;-71
2022/03/03 14:13:22;;;;;;;21.65;15.45;;;;;;;37.12;5.82;100231.69;5010331;28;106263;-71
2022/03/03 14:15:50;;;;;;;18.63;14.73;;;;;;;36.53;6.16;100231.78;5013323;28;106052;-71
2022/03/03 14:18:17;;;;;;;19.67;14.63;;;;;;;36.23;6.51;100228.38;5010486;28;106492;-73
